Tiempo atmosférico en la estación meteorológica de Fuente El Sol, Valladolid (755 m.)



Fecha
DESCASC
Temp. máxima en grados centígrados (hora)
DESCASC
Temp. mínima en grados centígrados (hora)
DESCASC
Temp. media en grados centígrados
DESCASC
Racha de viento máxima en m/sg (hora)
DESCASC
Velocidad máxima media en intervalos de 10 minutos(hora)
DESCASC
Precipitaciones diarias en mm
DESCASC
Precipitaciones de 00:00 a 06:00 en mm
DESCASC
Precipitaciones de 06:00 a 12:00 en mm
DESCASC
Precipitaciones de 12:00 a 18:00 en mm
DESCASC
Precipitaciones de 18:00 a 24:00 en mm
DESCASC
10-07-2020 33.2 (18:30) 12 (07:00) 22.6 11.39 (21:10) 7.78 (21:10) 0 0 0 0 0
09-07-2020 34.7 (16:50) 14.4 (06:50) 24.6 13.89 (20:00) 9.44 (20:00) -- 0 -- 0 0
08-07-2020 36.5 (17:50) 17.4 (04:30) 26.9 16.67 (18:30) 10.56 (18:30) 1.6 0 0 0 1.6
07-07-2020 37.4 (17:00) 12.7 (06:40) 25.1 11.11 (17:10) 6.94 (17:10) 0 0 0 0 0
06-07-2020 33.8 (17:00) 14.9 (00:00) 24.3 8.89 (21:40) 6.11 (21:40) 0 0 0 0 0
05-07-2020 35.3 (17:20) 10.5 (06:50) 22.9 7.22 (17:50) 3.61 (15:30) 0 0 0 0 0
04-07-2020 32.8 (18:30) 9.2 (06:50) 21 9.44 (16:30) 3.89 (14:40) 0 0 0 0 0
03-07-2020 29.6 (18:10) 8.5 (06:30) 19.1 8.06 (14:30) 4.44 (00:30) 0 0 0 0 0
02-07-2020 28.6 (17:20) 12.6 (00:00) 20.6 13.61 (17:30) 7.22 (20:00) 0 0 0 0 0
01-07-2020 32.2 (18:00) 17.2 (00:00) 24.7 13.61 (16:20) 8.06 (17:30) 0 0 0 0 0
30-06-2020 35.4 (15:50) 13.9 (00:00) 24.7 13.33 (16:40) 8.61 (20:10) 0 0 0 0 0
29-06-2020 33.6 (17:40) 13.5 (00:00) 23.5 10 (16:40) 4.72 (19:20) 0 0 0 0 0
28-06-2020 32.5 (17:40) 13 (00:00) 22.8 9.44 (15:00) 5.56 (21:10) 0 0 0 0 0
27-06-2020 28.8 (17:30) 12.6 (00:00) 20.7 11.39 (18:10) 6.11 (18:00) 0 0 0 0 0
26-06-2020 -- (--) -- (--) -- -- (--) -- (--) -- -- -- 0 0
25-06-2020 -- (--) -- (--) -- -- (--) -- (--) -- -- -- -- --
24-06-2020 -- (--) -- (--) -- -- (--) -- (--) -- 0 -- -- --
23-06-2020 36.4 (15:30) 11.9 (00:00) 24.2 16.11 (17:40) 9.44 (17:40) 0 0 0 0 0
22-06-2020 33.6 (18:30) 11.2 (00:00) 22.4 6.94 (12:10) 4.44 (20:30) 0 0 0 0 0
21-06-2020 31.4 (18:00) 11.6 (00:00) 21.5 9.72 (17:00) 4.44 (19:20) 0 0 0 0 0
20-06-2020 31.1 (18:10) 9.9 (00:00) 20.5 10.28 (19:00) 5.83 (21:10) 0 0 0 0 0
19-06-2020 28.5 (17:40) 8.2 (00:00) 18.3 10.28 (19:20) 6.11 (17:20) 0 0 0 0 0
18-06-2020 26.1 (18:20) 7.8 (06:40) 17 10 (17:40) 5 (18:20) 0 0 0 0 0
17-06-2020 24.7 (18:40) 8.6 (00:00) 16.7 10.56 (18:50) 4.17 (16:00) 0 0 0 0 0
16-06-2020 23.7 (17:30) 10.7 (00:00) 17.2 15.83 (16:40) 9.44 (16:30) 0 0 0 0 0
15-06-2020 24.5 (17:20) 10.2 (00:00) 17.3 10.83 (21:00) 7.78 (20:30) 0 0 0 0 0

Gráficas

Temp. máximas Temp. mínimas Temp. medias Precipitaciones Rachas de viento máximas Velocidades máximas media en intervalos de 10 minutos

Datos horarios

Fecha y hora oficial Temperatura (ºC) Velocidad del viento (km/h) Dirección del viento Racha (km/h) Dirección de racha Precipitación (mm) Presión (hPa) Tendencia (hPa) Humedad (%)
2020-07-14 23:00:00 21.5 18 Nordeste 38 Nordeste 0 -- -- 42
2020-07-14 22:00:00 24 22 Nordeste 36 Nordeste 0 -- -- 32
2020-07-14 21:00:00 27.2 23 Nordeste 37 Nordeste 0 -- -- 23
2020-07-14 20:00:00 29.2 20 Norte 35 Norte 0 -- -- 19
2020-07-14 19:00:00 29.9 18 Norte 33 Nordeste 0 -- -- 18
2020-07-14 18:00:00 30.5 17 Norte 30 Norte 0 -- -- 17
2020-07-14 17:00:00 30.4 14 Norte 27 Norte 0 -- -- 16
2020-07-14 16:00:00 30.2 10 Nordeste 24 Nordeste 0 -- -- 16
2020-07-14 15:00:00 28.7 14 Nordeste 28 Norte 0 -- -- 19
2020-07-14 14:00:00 27.4 8 Noroeste 23 Norte 0 -- -- 23
2020-07-14 13:00:00 25.6 8 Norte 25 Nordeste 0 -- -- 27
2020-07-14 12:00:00 23.5 10 Nordeste 21 Nordeste 0 -- -- 30
2020-07-14 11:00:00 21.2 11 Nordeste 18 Nordeste 0 -- -- 36
2020-07-14 10:00:00 19 10 Nordeste 14 Nordeste 0 -- -- 40
2020-07-14 09:00:00 17.4 5 Norte 11 Norte 0 -- -- 42
2020-07-14 08:00:00 13.9 3 Norte 8 Norte 0 -- -- 57
2020-07-14 07:00:00 11.5 6 Norte 13 Norte 0 -- -- 66
2020-07-14 06:00:00 12.2 8 Nordeste 10 Nordeste 0 -- -- 65
2020-07-14 05:00:00 11.5 4 Norte 9 Norte 0 -- -- 72
2020-07-14 04:00:00 13.4 0 Calma 12 Nordeste 0 -- -- 65
2020-07-14 03:00:00 16.1 9 Nordeste 15 Nordeste 0 -- -- 55
2020-07-14 02:00:00 16.9 9 Nordeste 21 Nordeste 0 -- -- 53
2020-07-14 01:00:00 18.8 12 Nordeste 22 Nordeste 0 -- -- 48
2020-07-14 00:00:00 20.8 15 Nordeste 30 Nordeste 0 -- -- 43
2020-07-13 23:00:00 23.3 21 Nordeste 31 Nordeste 0 -- -- 41
2020-07-13 22:00:00 25.1 18 Nordeste 34 Norte 0 -- -- 38
2020-07-13 21:00:00 28 24 Norte 34 Norte 0 -- -- 33
2020-07-13 20:00:00 30 18 Norte 33 Norte 0 -- -- 29
2020-07-13 19:00:00 31.3 14 Norte 29 Norte 0 -- -- 27
2020-07-13 18:00:00 32.4 9 Norte 32 Norte 0 -- -- 26
2020-07-13 17:00:00 32.1 16 Noroeste 35 Norte 0 -- -- 27
2020-07-13 16:00:00 31.6 7 Nordeste 24 Nordeste 0 -- -- 29
2020-07-13 15:00:00 30 12 Nordeste 30 Nordeste 0 -- -- 31
2020-07-13 14:00:00 28.5 11 Norte 24 Norte 0 -- -- 35
2020-07-13 13:00:00 25.9 10 Norte 25 Norte 0 -- -- 40
2020-07-13 12:00:00 24.1 10 Norte 20 Norte 0 -- -- 47
2020-07-13 11:00:00 22.3 6 Nordeste 17 Este 0 -- -- 57
2020-07-13 10:00:00 19.9 10 Nordeste 18 Nordeste 0 -- -- 66
2020-07-13 09:00:00 17.8 12 Nordeste 21 Nordeste 0 -- -- 77
2020-07-13 08:00:00 15.7 5 Norte 9 Norte 0 -- -- 86
2020-07-13 07:00:00 12.6 3 Noroeste 12 Norte 0 -- -- 94
2020-07-13 06:00:00 13.2 8 Norte 11 Norte 0 -- -- 91
2020-07-13 05:00:00 14.1 7 Nordeste 17 Nordeste 0 -- -- 88
2020-07-13 04:00:00 14.8 8 Nordeste 13 Nordeste 0 -- -- 85
2020-07-13 03:00:00 16.3 8 Nordeste 13 Nordeste 0 -- -- 82
2020-07-13 02:00:00 15.7 3 Nordeste 15 Este 0 -- -- 80
2020-07-13 01:00:00 18 9 Nordeste 14 Nordeste 0 -- -- 72
2020-07-13 00:00:00 19.1 9 Nordeste 13 Nordeste 0 -- -- 64
2020-07-12 23:00:00 19.7 9 Este 22 Este 0 -- -- 63
2020-07-12 22:00:00 22 9 Este 24 Este 0 -- -- 48
2020-07-12 21:00:00 24.6 18 Este 30 Nordeste 0 -- -- 40
2020-07-12 20:00:00 25 19 Norte 32 Norte 0 -- -- 46
2020-07-12 19:00:00 25.6 22 Noroeste 31 Norte 0 -- -- 47
2020-07-12 18:00:00 28.5 14 Sudoeste 26 Sudoeste 0 -- -- 30
2020-07-12 17:00:00 28.6 17 Sudoeste 27 Sudoeste 0 -- -- 32
2020-07-12 16:00:00 28.9 10 Oeste 21 Oeste 0 -- -- 40
2020-07-12 15:00:00 28.8 13 Oeste 28 Sudoeste 0 -- -- 41
2020-07-12 14:00:00 29.2 13 Oeste 27 Sudeste 0 -- -- 39
2020-07-12 13:00:00 28.4 7 Sur 14 Sudoeste 0 -- -- 42
2020-07-12 12:00:00 25.7 6 Este 14 Este 0 -- -- 50
2020-07-12 11:00:00 23.4 3 Nordeste 10 Norte 0 -- -- 61
2020-07-12 10:00:00 22.3 4 Noroeste 12 Noroeste 0.2 -- -- 65
2020-07-12 09:00:00 17 7 Noroeste 14 Noroeste 0 -- -- 87
2020-07-12 08:00:00 16.6 8 Norte 16 Noroeste 0 -- -- 88
2020-07-12 07:00:00 17 7 Nordeste 9 Nordeste 0 -- -- 85
2020-07-12 06:00:00 15.8 5 Norte 13 Nordeste 0 -- -- 90
2020-07-12 05:00:00 17.3 10 Nordeste 23 Norte 0 -- -- 83
2020-07-12 04:00:00 18 21 Norte 32 Noroeste 0 -- -- 84
2020-07-12 03:00:00 18.5 21 Noroeste 34 Noroeste 0 -- -- 86
2020-07-12 02:00:00 19.1 11 Norte 34 Norte 0 -- -- 81
2020-07-12 01:00:00 20.4 17 Noroeste 93 Oeste -- -- -- 77
2020-07-12 00:00:00 24 15 Nordeste 28 Nordeste 0 -- -- 47
2020-07-11 23:00:00 23.5 11 Norte 21 Nordeste 0 -- -- 52
2020-07-11 22:00:00 26.5 15 Nordeste 21 Nordeste 0 -- -- 43
2020-07-11 21:00:00 27.8 14 Norte 23 Nordeste 0 -- -- 42
2020-07-11 20:00:00 28.9 10 Norte 35 Nordeste 0 -- -- 40
2020-07-11 19:00:00 34.9 4 Noroeste 22 Este 0 -- -- 24
2020-07-11 18:00:00 34.3 12 Nordeste 28 Norte 0 -- -- 26
2020-07-11 17:00:00 35 10 Norte 24 Noroeste 0 -- -- 24
2020-07-11 16:00:00 34.7 8 Nordeste 23 Oeste 0 -- -- 25
2020-07-11 15:00:00 33.5 7 Oeste 20 Norte 0 -- -- 27
2020-07-11 14:00:00 31.4 6 Norte 19 Nordeste 0 -- -- 34
2020-07-11 13:00:00 29.2 6 Nordeste 21 Nordeste 0 -- -- 39
2020-07-11 12:00:00 26.4 9 Norte 18 Nordeste 0 -- -- 45
2020-07-11 11:00:00 23.2 10 Nordeste 17 Norte 0 -- -- 54
2020-07-11 10:00:00 20.4 9 Nordeste 17 Nordeste 0 -- -- 61
2020-07-11 09:00:00 17.2 11 Nordeste 22 Nordeste 0 -- -- 71
2020-07-11 08:00:00 14.9 9 Norte 13 Norte 0 -- -- 80
2020-07-11 07:00:00 13.4 8 Norte 15 Norte 0 -- -- 86
2020-07-11 06:00:00 13.2 6 Norte 10 Norte 0 -- -- 86
2020-07-11 05:00:00 13.4 7 Norte 10 Norte 0 -- -- 84
2020-07-11 04:00:00 14.6 6 Norte 9 Norte 0 -- -- 80
2020-07-11 03:00:00 15.6 5 Norte 13 Norte 0 -- -- 78
2020-07-11 02:00:00 16.6 9 Nordeste 20 Nordeste 0 -- -- 74
2020-07-11 01:00:00 17.8 13 Nordeste 25 Nordeste 0 -- -- 69
2020-07-11 00:00:00 19.8 16 Norte 26 Nordeste 0 -- -- 62
2020-07-10 23:00:00 23.2 13 Nordeste 26 Nordeste 0 -- -- 50
2020-07-10 22:00:00 25.5 16 Nordeste 41 Norte 0 -- -- 43
2020-07-10 21:00:00 29.3 21 Norte 30 Norte 0 -- -- 34
2020-07-10 20:00:00 31.7 16 Nordeste 29 Nordeste 0 -- -- 28
2020-07-10 19:00:00 32.3 14 Nordeste 27 Nordeste 0 -- -- 23
2020-07-10 18:00:00 32.5 14 Nordeste 30 Norte 0 -- -- 23
2020-07-10 17:00:00 32.4 15 Nordeste 33 Norte 0 -- -- 25
2020-07-10 16:00:00 31.7 8 Norte 28 Norte 0 -- -- 25
2020-07-10 15:00:00 30.4 10 Nordeste 24 Norte 0 -- -- 30
2020-07-10 14:00:00 28 15 Norte 26 Norte 0 -- -- 37
2020-07-10 13:00:00 27.2 10 Norte 28 Norte 0 -- -- 38
2020-07-10 12:00:00 26 11 Nordeste 19 Nordeste 0 -- -- 43
2020-07-10 11:00:00 23.7 7 Nordeste 18 Norte 0 -- -- 48
2020-07-10 10:00:00 21.7 4 Nordeste 12 Nordeste 0 -- -- 55
2020-07-10 09:00:00 18.2 7 Nordeste 10 Nordeste 0 -- -- 68
2020-07-10 08:00:00 16.4 4 Noroeste 5 Noroeste 0 -- -- 76
2020-07-10 07:00:00 12 2 Este 3 Este 0 -- -- 90
2020-07-10 06:00:00 12.7 0 Calma 10 Nordeste 0 -- -- 87
2020-07-10 05:00:00 13.9 2 Noroeste 9 Nordeste 0 -- -- 85
2020-07-10 04:00:00 15.3 6 Norte 10 Norte 0 -- -- 79
2020-07-10 03:00:00 16.2 7 Norte 15 Norte 0 -- -- 75
2020-07-10 02:00:00 16.7 9 Norte 13 Norte 0 -- -- 67
2020-07-10 01:00:00 19.7 9 Nordeste 16 Nordeste 0 -- -- 55
2020-07-10 00:00:00 20.8 10 Sudeste 16 Este 0 -- -- 52
2020-07-09 23:00:00 22.3 12 Este 18 Este 0 -- -- 49
2020-07-09 22:00:00 23.3 14 Este 24 Este 0 -- -- 47
2020-07-09 21:00:00 25.6 17 Este 49 Nordeste 0 -- -- 34
2020-07-09 20:00:00 25.9 34 Nordeste 50 Nordeste 0 -- -- 34
2020-07-09 19:00:00 33.6 7 Noroeste 23 Noroeste 0 -- -- 17
2020-07-09 18:00:00 34.6 6 Noroeste 28 Oeste 0 -- -- 17
2020-07-09 17:00:00 33.8 14 Oeste 24 Oeste 0 -- -- 18
2020-07-09 16:00:00 33.1 12 Este 24 Este 0 -- -- 18
2020-07-09 15:00:00 33.1 10 Noroeste 29 Oeste 0 -- -- 20
2020-07-09 14:00:00 31.6 13 Noroeste 26 Oeste 0 -- -- 20
2020-07-09 13:00:00 30.5 16 Oeste 25 Oeste 0 -- -- 19
2020-07-09 12:00:00 28.9 12 Oeste 21 Oeste 0 -- -- 30
2020-07-09 11:00:00 27.9 6 Sudoeste 15 Sudoeste 0 -- -- 36
2020-07-09 10:00:00 25.7 6 Sudeste 14 Este 0 -- -- 44
2020-07-09 09:00:00 21.3 6 Nordeste 15 Nordeste 0 -- -- 54
2020-07-09 08:00:00 16.5 12 Nordeste -- -- -- -- -- 70
2020-07-09 07:00:00 15.3 8 Nordeste 12 Nordeste 0 -- -- 75
2020-07-09 06:00:00 15.4 9 Este 15 Este 0 -- -- 75
2020-07-09 05:00:00 16.1 8 Este 19 Este 0 -- -- 72
2020-07-09 04:00:00 17.7 15 Este 28 Este 0 -- -- 66
2020-07-09 03:00:00 18.9 21 Este 44 Este 0 -- -- 61
2020-07-09 02:00:00 21 33 Este 43 Este 0 -- -- 50
2020-07-09 01:00:00 21.4 18 Nordeste 27 Este 0 -- -- 48
2020-07-09 00:00:00 22.1 13 Nordeste 26 Este 0 -- -- 46
2020-07-08 23:00:00 23.2 19 Nordeste 34 Este 0 -- -- 45
2020-07-08 22:00:00 23.3 15 Nordeste 39 Este 0 -- -- 47
2020-07-08 21:00:00 24.9 11 Sudeste 27 Sudeste 0 -- -- 46
2020-07-08 20:00:00 26.7 14 Sudeste 21 Sudeste 0.2 -- -- 59
2020-07-08 19:00:00 24.4 20 Sudeste 60 Sudeste 1.4 -- -- 61
2020-07-08 18:00:00 36.1 26 Sudeste 44 Sudeste 0 -- -- 19
2020-07-08 17:00:00 35 29 Sur 44 Sudeste 0 -- -- 19
2020-07-08 16:00:00 34.8 27 Sur 37 Sudeste 0 -- -- 18
2020-07-08 15:00:00 33.8 29 Sur 48 Sur 0 -- -- 18
2020-07-08 14:00:00 36 30 Sudeste 51 Sudeste 0 -- -- 16
2020-07-08 13:00:00 35.7 29 Sudeste 44 Sudeste 0 -- -- 17
2020-07-08 12:00:00 31.7 9 Nordeste 15 Nordeste 0 -- -- 30
2020-07-08 11:00:00 24.4 7 Nordeste 12 Norte 0 -- -- 41
2020-07-08 10:00:00 21.7 3 Nordeste 14 Norte 0 -- -- 49
2020-07-08 09:00:00 21.2 6 Norte 13 Norte 0 -- -- 44
2020-07-08 08:00:00 19.6 10 Norte 13 Norte 0 -- -- 47
2020-07-08 07:00:00 20.5 5 Sudeste 30 Sudeste 0 -- -- 41
2020-07-08 06:00:00 20.2 15 Sudeste 26 Sudeste 0 -- -- 43
2020-07-08 05:00:00 18 9 Oeste 18 Oeste 0 -- -- 52
2020-07-08 04:00:00 18.8 3 Sudoeste 10 Nordeste 0 -- -- 52
2020-07-08 03:00:00 19.5 3 Nordeste 10 Norte 0 -- -- 42
2020-07-08 02:00:00 20.5 8 Este 12 Este 0 -- -- 38
2020-07-08 01:00:00 22.5 10 Nordeste 16 Nordeste 0 -- -- 36
2020-07-08 00:00:00 22.6 5 Sur 18 Sur 0 -- -- 36
2020-07-07 23:00:00 23.5 0 Calma 5 Norte 0 -- -- 36
2020-07-07 22:00:00 27.5 4 Norte 15 Noroeste 0 -- -- 32
2020-07-07 21:00:00 32.7 12 Noroeste 27 Noroeste 0 -- -- 22
2020-07-07 20:00:00 35.5 19 Oeste 35 Oeste 0 -- -- 16
2020-07-07 19:00:00 35.9 17 Sudoeste 33 Oeste 0 -- -- 16
2020-07-07 18:00:00 37 17 Oeste 40 Oeste 0 -- -- 17
2020-07-07 17:00:00 37.4 14 Noroeste 28 Oeste 0 -- -- 16
2020-07-07 16:00:00 36.1 8 Oeste 32 Oeste 0 -- -- 15
2020-07-07 15:00:00 35.9 9 Noroeste 23 Oeste 0 -- -- 19
2020-07-07 14:00:00 34.1 5 Norte 14 Norte 0 -- -- 26
2020-07-07 13:00:00 31.3 8 Norte 16 Nordeste 0 -- -- 31
2020-07-07 12:00:00 28 6 Nordeste 15 Nordeste 0 -- -- 35
2020-07-07 11:00:00 23.8 8 Norte 17 Nordeste 0 -- -- 44
2020-07-07 10:00:00 20.2 10 Nordeste 15 Nordeste 0 -- -- 52
2020-07-07 09:00:00 17.4 9 Nordeste 14 Nordeste 0 -- -- 59
2020-07-07 08:00:00 14.4 10 Nordeste 14 Nordeste 0 -- -- 66
2020-07-07 07:00:00 13 10 Norte 14 Norte 0 -- -- 70
2020-07-07 06:00:00 13.1 4 Nordeste 12 Nordeste 0 -- -- 70
2020-07-07 05:00:00 13.9 9 Norte 15 Norte 0 -- -- 67
2020-07-07 04:00:00 14.3 9 Norte 13 Norte 0 -- -- 69
2020-07-07 03:00:00 17.1 8 Nordeste 12 Nordeste 0 -- -- 62
2020-07-07 02:00:00 18.2 7 Nordeste 13 Nordeste 0 -- -- 56
2020-07-07 01:00:00 19.5 11 Este 16 Nordeste 0 -- -- 51
2020-07-07 00:00:00 21.4 8 Nordeste 23 Nordeste 0 -- -- 47
2020-07-06 23:00:00 23.4 15 Nordeste 30 Nordeste 0 -- -- 44
2020-07-06 22:00:00 25.9 19 Nordeste 32 Nordeste 0 -- -- 39
2020-07-06 21:00:00 29.4 21 Nordeste 29 Nordeste 0 -- -- 35
2020-07-06 20:00:00 31.5 18 Norte 27 Nordeste 0 -- -- 32
2020-07-06 19:00:00 33.2 13 Norte 29 Norte 0 -- -- 30
2020-07-06 18:00:00 33.6 11 Norte 28 Nordeste 0 -- -- 30
2020-07-06 17:00:00 33.8 13 Norte 27 Norte 0 -- -- 29
2020-07-06 16:00:00 33 11 Norte 27 Norte 0 -- -- 30
2020-07-06 15:00:00 32.2 12 Norte 26 Norte 0 -- -- 31
2020-07-06 14:00:00 31.7 10 Norte 21 Nordeste 0 -- -- 32
2020-07-06 13:00:00 30 9 Nordeste 21 Nordeste 0 -- -- 35
2020-07-06 12:00:00 28 7 Norte 18 Nordeste 0 -- -- 38
2020-07-06 11:00:00 25.1 8 Nordeste 17 Nordeste 0 -- -- 44
2020-07-06 10:00:00 23.4 8 Norte 13 Norte 0 -- -- 47
2020-07-06 09:00:00 20.9 8 Nordeste 15 Nordeste 0 -- -- 54
2020-07-06 08:00:00 18.8 7 Nordeste 13 Nordeste 0 -- -- 61
2020-07-06 07:00:00 15.9 8 Norte 12 Norte 0 -- -- 71
2020-07-06 06:00:00 15.8 5 Norte 15 Norte 0 -- -- 71
2020-07-06 05:00:00 17.4 9 Norte 15 Norte 0 -- -- 66
2020-07-06 04:00:00 17.1 7 Norte 9 Norte 0 -- -- 62
2020-07-06 03:00:00 18.5 5 Nordeste 9 Este 0 -- -- 59
2020-07-06 02:00:00 19.8 8 Este 16 Este 0 -- -- 50
2020-07-06 01:00:00 22 11 Este 19 Nordeste 0 -- -- 45
2020-07-06 00:00:00 23.9 12 Norte 15 Norte 0 -- -- 39
2020-07-05 23:00:00 24.3 12 Noroeste 13 Noroeste 0 -- -- 37
2020-07-05 22:00:00 26.7 10 Noroeste 13 Noroeste 0 -- -- 31
2020-07-05 21:00:00 32.3 8 Noroeste 17 Noroeste 0 -- -- 21
2020-07-05 20:00:00 34.2 9 Noroeste 17 Norte 0 -- -- 18
2020-07-05 19:00:00 33.8 12 Norte 19 Noroeste 0 -- -- 19
2020-07-05 18:00:00 34.3 11 Norte 26 Noroeste 0 -- -- 18
2020-07-05 17:00:00 33.9 9 Norte 25 Noroeste 0 -- -- 19
2020-07-05 16:00:00 34.2 13 Noroeste 26 Norte 0 -- -- 20
2020-07-05 15:00:00 32.7 11 Norte 23 Norte 0 -- -- 22
2020-07-05 14:00:00 32.2 6 Norte 20 Nordeste 0 -- -- 25
2020-07-05 13:00:00 30 11 Nordeste 20 Norte 0 -- -- 28
2020-07-05 12:00:00 28.5 8 Norte 17 Noroeste 0 -- -- 29
2020-07-05 11:00:00 25.9 10 Nordeste 17 Norte 0 -- -- 33
2020-07-05 10:00:00 22.5 8 Norte 13 Nordeste 0 -- -- 40
2020-07-05 09:00:00 20 4 Norte 8 Norte 0 -- -- 44
2020-07-05 08:00:00 16.1 0 Calma 4 Sudoeste 0 -- -- 55
2020-07-05 07:00:00 10.6 0 Calma 4 Norte 0 -- -- 72
2020-07-05 06:00:00 11.4 0 Calma 2 Sudeste 0 -- -- 64
2020-07-05 05:00:00 11.9 0 Calma 4 Sudoeste 0 -- -- 67
2020-07-05 04:00:00 12.7 3 Oeste 4 Oeste 0 -- -- 68
2020-07-05 03:00:00 13.7 2 Sur -- -- 0 -- -- 65
2020-07-05 02:00:00 17.2 6 Nordeste 11 Nordeste 0 -- -- 45
2020-07-05 01:00:00 17.1 7 Este 13 Nordeste 0 -- -- 39
2020-07-05 00:00:00 20.9 9 Nordeste 14 Nordeste 0 -- -- 30
2020-07-04 23:00:00 23.6 8 Nordeste 13 Nordeste 0 -- -- 26
2020-07-04 22:00:00 25.3 9 Nordeste 12 Norte 0 -- -- 24
2020-07-04 21:00:00 27.4 10 Norte 16 Norte 0 -- -- 18
2020-07-04 20:00:00 31.6 9 Norte 18 Norte 0 -- -- 13
2020-07-04 19:00:00 31.6 9 Norte 22 Norte 0 -- -- 14
2020-07-04 18:00:00 32.4 8 Norte 21 Norte 0 -- -- 16
2020-07-04 17:00:00 31.3 9 Nordeste 34 Nordeste 0 -- -- 16
2020-07-04 16:00:00 30.7 9 Norte 21 Norte 0 -- -- 19
2020-07-04 15:00:00 29.9 11 Norte 23 Norte 0 -- -- 20
2020-07-04 14:00:00 28.5 8 Este 25 Nordeste 0 -- -- 23
2020-07-04 13:00:00 27.8 9 Nordeste 20 Nordeste 0 -- -- 25
2020-07-04 12:00:00 25.7 10 Norte 19 Norte 0 -- -- 27
2020-07-04 11:00:00 23.8 7 Nordeste 15 Norte 0 -- -- 32
2020-07-04 10:00:00 19.7 6 Norte 12 Norte 0 -- -- 44
2020-07-04 09:00:00 17.7 4 Este 8 Este 0 -- -- 50
2020-07-04 08:00:00 14.4 4 Este 10 Nordeste 0 -- -- 59
2020-07-04 07:00:00 9.3 3 Este 12 Nordeste 0 -- -- 75
2020-07-04 06:00:00 11 7 Nordeste 12 Nordeste 0 -- -- 68
2020-07-04 05:00:00 12.5 9 Nordeste 13 Nordeste 0 -- -- 62
2020-07-04 04:00:00 11.1 7 Norte 8 Norte 0 -- -- 64
2020-07-04 03:00:00 11.8 4 Sur 6 Este 0 -- -- 61
2020-07-04 02:00:00 13.6 9 Sudeste 15 Sudeste 0 -- -- 52
2020-07-04 01:00:00 14.4 9 Este 12 Este 0 -- -- 49
2020-07-04 00:00:00 18.6 9 Nordeste 15 Nordeste 0 -- -- 39
2020-07-03 23:00:00 19.5 10 Nordeste 16 Norte 0 -- -- 37
2020-07-03 22:00:00 22.6 13 Norte 17 Norte 0 -- -- 32
2020-07-03 21:00:00 26.5 7 Nordeste 17 Norte 0 -- -- 25
2020-07-03 20:00:00 28 10 Norte 21 Noroeste 0 -- -- 22
2020-07-03 19:00:00 29 9 Norte 23 Norte 0 -- -- 21
2020-07-03 18:00:00 28.7 13 Noroeste 24 Norte 0 -- -- 23
2020-07-03 17:00:00 27.8 8 Nordeste 24 Norte 0 -- -- 24
2020-07-03 16:00:00 27.2 10 Nordeste 23 Norte 0 -- -- 27
2020-07-03 15:00:00 26 11 Nordeste 29 Norte 0 -- -- 32
2020-07-03 14:00:00 25.1 11 Nordeste 25 Nordeste 0 -- -- 34
2020-07-03 13:00:00 23 8 Nordeste 21 Norte 0 -- -- 44
2020-07-03 12:00:00 20.8 10 Nordeste 19 Nordeste 0 -- -- 50
2020-07-03 11:00:00 19.1 8 Nordeste 18 Nordeste 0 -- -- 56
2020-07-03 10:00:00 16.3 9 Nordeste 17 Nordeste 0 -- -- 63
2020-07-03 09:00:00 14.5 9 Nordeste 13 Este 0 -- -- 70
2020-07-03 08:00:00 12.4 4 Nordeste 7 Nordeste 0 -- -- 79
2020-07-03 07:00:00 9.2 6 Norte 11 Norte 0 -- -- 91
2020-07-03 06:00:00 8.8 9 Norte 12 Norte 0 -- -- 90
2020-07-03 05:00:00 9 7 Norte 10 Norte 0 -- -- 87
2020-07-03 04:00:00 9.6 7 Norte 9 Norte 0 -- -- 84
2020-07-03 03:00:00 11.7 6 Nordeste 12 Norte 0 -- -- 79
2020-07-03 02:00:00 12.9 10 Nordeste 22 Nordeste 0 -- -- 77
2020-07-03 01:00:00 14.3 15 Nordeste 24 Nordeste 0 -- -- 73
2020-07-03 00:00:00 16.6 17 Nordeste 26 Norte 0 -- -- 66
2020-07-02 23:00:00 18.2 12 Oeste 24 Noroeste 0 -- -- 39
2020-07-02 22:00:00 21.3 17 Noroeste 31 Noroeste 0 -- -- 33
2020-07-02 21:00:00 24.5 23 Noroeste 37 Noroeste 0 -- -- 30
2020-07-02 20:00:00 26.3 26 Noroeste 34 Noroeste 0 -- -- 27
2020-07-02 19:00:00 27.9 22 Noroeste 39 Oeste 0 -- -- 25
2020-07-02 18:00:00 28 25 Oeste 49 Oeste 0 -- -- 25
2020-07-02 17:00:00 27.8 24 Oeste 37 Oeste 0 -- -- 31
2020-07-02 16:00:00 27.6 23 Oeste 37 Oeste 0 -- -- 32
2020-07-02 15:00:00 26.8 19 Oeste 32 Oeste 0 -- -- 36
2020-07-02 14:00:00 26.1 13 Noroeste 27 Noroeste 0 -- -- 37
2020-07-02 13:00:00 25.3 12 Oeste 22 Oeste 0 -- -- 42
2020-07-02 12:00:00 24.5 11 Noroeste 21 Noroeste 0 -- -- 46
2020-07-02 11:00:00 23 6 Noroeste 17 Noroeste 0 -- -- 49
2020-07-02 10:00:00 22.5 6 Noroeste 16 Noroeste 0 -- -- 51
2020-07-02 09:00:00 20 12 Noroeste 15 Noroeste 0 -- -- 62
2020-07-02 08:00:00 16.2 4 Sudoeste 6 Sudoeste 0 -- -- 75
2020-07-02 07:00:00 12.7 2 Sudoeste 10 Sudoeste 0 -- -- 84
2020-07-02 06:00:00 13.3 10 Oeste 11 Oeste 0 -- -- 86
2020-07-02 05:00:00 13.7 8 Oeste 15 Oeste 0 -- -- 84
2020-07-02 04:00:00 14.8 11 Oeste 13 Oeste 0 -- -- 80
2020-07-02 03:00:00 15.5 10 Oeste 13 Sur 0 -- -- 76
2020-07-02 02:00:00 17.7 11 Sur 15 Oeste 0 -- -- 64
2020-07-02 01:00:00 19.3 12 Oeste 16 Oeste 0 -- -- 58
2020-07-02 00:00:00 20.1 12 Oeste 15 Oeste 0 -- -- 54
2020-07-01 23:00:00 21.6 14 Oeste 21 Noroeste 0 -- -- 42
2020-07-01 22:00:00 25.2 17 Noroeste 33 Oeste 0 -- -- 33
2020-07-01 21:00:00 28.3 23 Noroeste 37 Oeste 0 -- -- 30
2020-07-01 20:00:00 30.3 23 Oeste 41 Oeste 0 -- -- 22
2020-07-01 19:00:00 30.8 28 Oeste 44 Oeste 0 -- -- 25
2020-07-01 18:00:00 32.2 22 Oeste 43 Oeste 0 -- -- 23
2020-07-01 17:00:00 31.4 24 Oeste 49 Oeste 0 -- -- 25
2020-07-01 16:00:00 31.7 20 Oeste 45 Oeste 0 -- -- 23
2020-07-01 15:00:00 30.1 14 Oeste 40 Oeste 0 -- -- 29
2020-07-01 14:00:00 29.7 14 Oeste 36 Oeste 0 -- -- 33
2020-07-01 13:00:00 27.8 16 Oeste 30 Sudoeste 0 -- -- 43
2020-07-01 12:00:00 26 16 Oeste 25 Oeste 0 -- -- 53
2020-07-01 11:00:00 25.2 10 Oeste 19 Oeste 0 -- -- 54
2020-07-01 10:00:00 23.1 12 Oeste 22 Sudoeste 0 -- -- 62
2020-07-01 09:00:00 21.2 13 Sudoeste 19 Sudoeste 0 -- -- 69
2020-07-01 08:00:00 18.8 11 Sudoeste 23 Oeste 0 -- -- 75
2020-07-01 07:00:00 17.2 15 Oeste 23 Oeste 0 -- -- 79
2020-07-01 06:00:00 18 17 Sudoeste 28 Sudoeste 0 -- -- 74
2020-07-01 05:00:00 18.7 17 Sudoeste 27 Sudoeste 0 -- -- 69
2020-07-01 04:00:00 19.3 17 Sudoeste 24 Sudoeste 0 -- -- 66
2020-07-01 03:00:00 20.4 13 Sudoeste 19 Sudoeste 0 -- -- 57
2020-07-01 02:00:00 19.6 13 Oeste 22 Noroeste 0 -- -- 59
2020-07-01 01:00:00 23 18 Oeste 37 Noroeste 0 -- -- 46
2020-07-01 00:00:00 23.2 16 Oeste 21 Oeste 0 -- -- 40
2020-06-30 23:00:00 22.5 13 Sudoeste 18 Sudoeste 0 -- -- 42
2020-06-30 22:00:00 25.9 15 Sudoeste 28 Sudoeste 0 -- -- 34
2020-06-30 21:00:00 30.5 22 Sudoeste 43 Oeste 0 -- -- 23
2020-06-30 20:00:00 32.7 26 Oeste 40 Oeste 0 -- -- 23
2020-06-30 19:00:00 33.9 27 Oeste 41 Oeste 0 -- -- 20
2020-06-30 18:00:00 35 23 Oeste 42 Oeste 0 -- -- 19
2020-06-30 17:00:00 35.1 26 Sudoeste 48 Noroeste 0 -- -- 20
2020-06-30 16:00:00 34.9 13 Oeste 28 Oeste 0 -- -- 23
2020-06-30 15:00:00 34 13 Oeste 36 Oeste 0 -- -- 27
2020-06-30 14:00:00 33.1 11 Noroeste 28 Oeste 0 -- -- 29
2020-06-30 13:00:00 32.2 4 Nordeste 13 Norte 0 -- -- 32
2020-06-30 12:00:00 28.8 9 Norte 16 Norte 0 -- -- 42
2020-06-30 11:00:00 26.4 6 Nordeste 13 Este 0 -- -- 50
2020-06-30 10:00:00 23.2 6 Nordeste 12 Este 0 -- -- 58
2020-06-30 09:00:00 20.4 7 Nordeste 11 Nordeste 0 -- -- 63
2020-06-30 08:00:00 18.1 4 Nordeste 9 Norte 0 -- -- 66
2020-06-30 07:00:00 14.4 8 Norte 10 Norte 0 -- -- 82
2020-06-30 06:00:00 14.1 3 Oeste 5 Oeste 0 -- -- 87
2020-06-30 05:00:00 14.7 0 Calma 4 Sur 0 -- -- 87
2020-06-30 04:00:00 16.5 3 Este 10 Nordeste 0 -- -- 76
2020-06-30 03:00:00 17.4 6 Norte 9 Norte 0 -- -- 74
2020-06-30 02:00:00 20.2 8 Nordeste 15 Nordeste 0 -- -- 63
2020-06-30 01:00:00 21.4 8 Nordeste 15 Nordeste 0 -- -- 59
2020-06-30 00:00:00 23 12 Nordeste 26 Nordeste 0 -- -- 54
2020-06-29 23:00:00 22 4 Noroeste 10 Norte 0 -- -- 48
2020-06-29 22:00:00 25.5 9 Norte 17 Norte 0 -- -- 37
2020-06-29 21:00:00 29.7 15 Norte 26 Norte 0 -- -- 30
2020-06-29 20:00:00 31.8 15 Norte 29 Norte 0 -- -- 28
2020-06-29 19:00:00 32.3 14 Norte 27 Noroeste 0 -- -- 28
2020-06-29 18:00:00 33.4 12 Noroeste 24 Noroeste 0 -- -- 26
2020-06-29 17:00:00 32.2 13 Noroeste 36 Oeste 0 -- -- 27
2020-06-29 16:00:00 31.7 10 Noroeste 26 Oeste 0 -- -- 30
2020-06-29 15:00:00 30.6 13 Noroeste 28 Oeste 0 -- -- 34
2020-06-29 14:00:00 28.5 8 Oeste 22 Oeste 0 -- -- 39
2020-06-29 13:00:00 27.9 5 Nordeste 15 Oeste 0 -- -- 43
2020-06-29 12:00:00 27 6 Oeste 12 Oeste 0 -- -- 45
2020-06-29 11:00:00 25.4 5 Noroeste 11 Noroeste 0 -- -- 50
2020-06-29 10:00:00 22.9 3 Noroeste 10 Noroeste 0 -- -- 57
2020-06-29 09:00:00 20.9 7 Noroeste 14 Oeste 0 -- -- 63
2020-06-29 08:00:00 17 5 Sudoeste 9 Sudoeste 0 -- -- 77
2020-06-29 07:00:00 13.5 7 Sudoeste 14 Sudoeste 0 -- -- 89
2020-06-29 06:00:00 13.9 10 Sudoeste 13 Sudoeste 0 -- -- 87
2020-06-29 05:00:00 14.7 6 Sudoeste 10 Sudoeste 0 -- -- 84
2020-06-29 04:00:00 15.8 8 Sudoeste 12 Sudoeste 0 -- -- 80
2020-06-29 03:00:00 15.9 11 Oeste 14 Noroeste 0 -- -- 81
2020-06-29 02:00:00 17.8 8 Noroeste 11 Noroeste 0 -- -- 73
2020-06-29 01:00:00 19.5 9 Noroeste 16 Noroeste 0 -- -- 66
2020-06-29 00:00:00 21.2 13 Oeste 22 Noroeste 0 -- -- 58
2020-06-28 23:00:00 23.2 17 Noroeste 26 Noroeste 0 -- -- 52
2020-06-28 22:00:00 25.2 13 Oeste 27 Noroeste 0 -- -- 43
2020-06-28 21:00:00 28.8 18 Oeste 25 Oeste 0 -- -- 34
2020-06-28 20:00:00 30.4 15 Oeste 27 Oeste 0 -- -- 31
2020-06-28 19:00:00 31.5 13 Oeste 30 Oeste 0 -- -- 27
2020-06-28 18:00:00 31.7 9 Oeste 23 Oeste 0 -- -- 28
2020-06-28 17:00:00 31 10 Noroeste 26 Oeste 0 -- -- 31
2020-06-28 16:00:00 30.2 10 Noroeste 22 Noroeste 0 -- -- 33
2020-06-28 15:00:00 29.1 9 Noroeste 34 Sudoeste 0 -- -- 36
2020-06-28 14:00:00 26.8 8 Norte 23 Oeste 0 -- -- 42
2020-06-28 13:00:00 26 7 Noroeste 19 Noroeste 0 -- -- 46
2020-06-28 12:00:00 25.7 9 Noroeste 28 Oeste 0 -- -- 48
2020-06-28 11:00:00 23.4 6 Oeste 17 Oeste 0 -- -- 54
2020-06-28 10:00:00 22.6 6 Noroeste 13 Oeste 0 -- -- 56
2020-06-28 09:00:00 19.4 8 Oeste 11 Oeste 0 -- -- 71
2020-06-28 08:00:00 16.4 7 Sudoeste 12 Sudoeste 0 -- -- 81
2020-06-28 07:00:00 13.3 4 Sudoeste 12 Sudoeste 0 -- -- 89
2020-06-28 06:00:00 13.6 10 Sudoeste 12 Sudoeste 0 -- -- 89
2020-06-28 05:00:00 13.7 6 Sudoeste 13 Sudoeste 0 -- -- 87
2020-06-28 04:00:00 14.2 12 Sudoeste 13 Sudoeste 0 -- -- 86
2020-06-28 03:00:00 15 6 Sudoeste 9 Sudoeste 0 -- -- 80
2020-06-28 02:00:00 15.5 7 Sudoeste 9 Sudoeste 0 -- -- 81
2020-06-28 01:00:00 16.7 7 Oeste 14 Oeste 0 -- -- 76
2020-06-28 00:00:00 19 12 Oeste 16 Oeste 0 -- -- 65
2020-06-27 23:00:00 20.1 12 Oeste 15 Oeste 0 -- -- 59
2020-06-27 22:00:00 22.1 9 Oeste 22 Noroeste 0 -- -- 51
2020-06-27 21:00:00 25.2 16 Noroeste 34 Noroeste 0 -- -- 42
2020-06-27 20:00:00 26.8 21 Noroeste 35 Oeste 0 -- -- 40
2020-06-27 19:00:00 28.1 19 Noroeste 41 Noroeste 0 -- -- 37
2020-06-27 18:00:00 27.8 22 Oeste 32 Oeste 0 -- -- 38
2020-06-27 17:00:00 27.7 18 Oeste 33 Oeste 0 -- -- 38
2020-06-27 16:00:00 27.6 13 Oeste 30 Oeste 0 -- -- 37
2020-06-27 15:00:00 26.9 12 Oeste 33 Noroeste 0 -- -- 38
2020-06-27 14:00:00 24.7 13 Oeste 27 Oeste 0 -- -- 46
2020-06-27 13:00:00 23.5 12 Oeste 24 Oeste 0 -- -- 50
2020-06-27 12:00:00 21.9 8 Sudoeste 22 Sudoeste 0 -- -- 56
2020-06-27 11:00:00 20.1 11 Oeste 22 Oeste 0 -- -- 63
2020-06-27 10:00:00 18.1 12 Oeste 22 Oeste 0 -- -- 70
2020-06-27 09:00:00 16.1 15 Oeste 27 Oeste 0 -- -- 77
2020-06-27 08:00:00 15.7 13 Sudoeste 20 Sudoeste 0 -- -- 78
2020-06-27 07:00:00 12.6 7 Sudoeste 11 Sudoeste 0 -- -- 86
2020-06-27 06:00:00 13.3 6 Sudoeste 12 Sudoeste 0 -- -- 83
2020-06-27 05:00:00 13.8 10 Sudoeste 14 Sudoeste 0 -- -- 83
2020-06-27 04:00:00 14.4 10 Sudoeste 15 Sudoeste 0 -- -- 79
2020-06-27 03:00:00 14.9 11 Sudoeste 24 Oeste 0 -- -- 78
2020-06-27 02:00:00 14.9 11 Oeste 21 Oeste 0 -- -- 77
2020-06-27 01:00:00 17.3 16 Oeste 22 Oeste 0 -- -- 65
2020-06-27 00:00:00 17.7 12 Oeste 18 Oeste 0 -- -- 61
2020-06-26 23:00:00 19.1 13 Oeste 19 Oeste 0 -- -- 50
2020-06-26 22:00:00 21.2 14 Oeste 28 Oeste 0 -- -- 39
2020-06-26 21:00:00 24.2 22 Oeste 40 Oeste 0 -- -- 33
2020-06-26 20:00:00 25.6 24 Oeste 39 Oeste 0 -- -- 27
2020-06-26 19:00:00 25.6 22 Oeste 39 Oeste 0 -- -- 24
2020-06-26 18:00:00 26.3 26 Oeste 41 Oeste 0 -- -- 23
2020-06-26 17:00:00 27.3 27 Oeste 46 Oeste 0 -- -- 25
2020-06-26 16:00:00 27.2 23 Oeste 48 Oeste 0 -- -- 30
2020-06-26 15:00:00 25.3 27 Oeste 45 Sudoeste 0 -- -- 29
2020-06-26 14:00:00 23.5 22 Oeste 35 Oeste 0 -- -- 45
2020-06-26 13:00:00 22.5 13 Oeste 26 Oeste 0 -- -- 52
2020-06-26 12:00:00 22 14 Oeste -- -- -- -- -- 55
2020-06-26 11:00:00 -- -- -- -- -- -- -- -- --
2020-06-26 10:00:00 -- -- -- -- -- -- -- -- --
2020-06-26 09:00:00 -- -- -- -- -- -- -- -- --
2020-06-26 08:00:00 -- -- -- -- -- -- -- -- --
2020-06-26 07:00:00 -- -- -- -- -- -- -- -- --
2020-06-26 06:00:00 -- -- -- -- -- -- -- -- --
2020-06-26 05:00:00 -- -- -- -- -- -- -- -- --
2020-06-26 04:00:00 -- -- -- -- -- -- -- -- --
2020-06-26 03:00:00 -- -- -- -- -- -- -- -- --
2020-06-26 02:00:00 -- -- -- -- -- -- -- -- --
2020-06-26 01:00:00 -- -- -- -- -- -- -- -- --
2020-06-26 00:00:00 -- -- -- -- -- -- -- -- --
2020-06-25 23:00:00 -- -- -- -- -- -- -- -- --
2020-06-25 22:00:00 -- -- -- -- -- -- -- -- --
2020-06-25 21:00:00 -- -- -- -- -- -- -- -- --
2020-06-25 20:00:00 -- -- -- -- -- -- -- -- --
2020-06-25 19:00:00 -- -- -- -- -- -- -- -- --
2020-06-25 18:00:00 -- -- -- -- -- -- -- -- --
2020-06-25 17:00:00 -- -- -- -- -- -- -- -- --
2020-06-25 16:00:00 -- -- -- -- -- -- -- -- --
2020-06-25 15:00:00 -- -- -- -- -- -- -- -- --
2020-06-25 14:00:00 -- -- -- -- -- -- -- -- --
2020-06-25 13:00:00 -- -- -- -- -- -- -- -- --
2020-06-25 12:00:00 -- -- -- -- -- -- -- -- --
2020-06-25 11:00:00 -- -- -- -- -- -- -- -- --
2020-06-25 10:00:00 -- -- -- -- -- -- -- -- --
2020-06-25 09:00:00 -- -- -- -- -- -- -- -- --
2020-06-25 08:00:00 -- -- -- -- -- -- -- -- --
2020-06-25 07:00:00 -- -- -- -- -- -- -- -- --
2020-06-25 06:00:00 -- -- -- -- -- -- -- -- --
2020-06-25 05:00:00 -- -- -- -- -- -- -- -- --
2020-06-25 04:00:00 -- -- -- -- -- -- -- -- --
2020-06-25 03:00:00 -- -- -- -- -- -- -- -- --
2020-06-25 02:00:00 -- -- -- -- -- -- -- -- --
2020-06-25 01:00:00 -- -- -- -- -- -- -- -- --
2020-06-25 00:00:00 -- -- -- -- -- -- -- -- --
2020-06-24 23:00:00 -- -- -- -- -- -- -- -- --
2020-06-24 22:00:00 -- -- -- -- -- -- -- -- --
2020-06-24 21:00:00 -- -- -- -- -- -- -- -- --
2020-06-24 20:00:00 -- -- -- -- -- -- -- -- --
2020-06-24 19:00:00 -- -- -- -- -- -- -- -- --
2020-06-24 18:00:00 -- -- -- -- -- -- -- -- --
2020-06-24 17:00:00 -- -- -- -- -- -- -- -- --
2020-06-24 16:00:00 -- -- -- -- -- -- -- -- --
2020-06-24 15:00:00 -- -- -- -- -- -- -- -- --
2020-06-24 14:00:00 -- -- -- -- -- -- -- -- --
2020-06-24 13:00:00 -- -- -- -- -- -- -- -- --
2020-06-24 12:00:00 -- -- -- -- -- -- -- -- --
2020-06-24 11:00:00 -- -- -- -- -- -- -- -- --
2020-06-24 10:00:00 -- -- -- -- -- -- -- -- --
2020-06-24 09:00:00 -- -- -- -- -- -- -- -- --
2020-06-24 08:00:00 18.1 6 Norte 19 Noroeste 0 -- -- 64
2020-06-24 07:00:00 17.2 2 Sudoeste 6 Nordeste 0 -- -- 69
2020-06-24 06:00:00 17.5 3 Sudeste 6 Este 0 -- -- 58
2020-06-24 05:00:00 19.1 6 Sudeste 11 Sudeste 0 -- -- 52
2020-06-24 04:00:00 21.3 7 Sudeste 28 Sudeste 0 -- -- 45
2020-06-24 03:00:00 17.7 12 Este 17 Sudeste 0 -- -- 57
2020-06-24 02:00:00 20 6 Este 13 Este 0 -- -- 49
2020-06-24 01:00:00 21.1 10 Este 21 Norte 0 -- -- 46
2020-06-24 00:00:00 22.7 5 Sudeste 25 Sudeste 0 -- -- 43
2020-06-23 23:00:00 24.8 16 Sudeste 21 Este 0 -- -- 39
2020-06-23 22:00:00 25.3 6 Este 18 Sudeste 0 -- -- 36
2020-06-23 21:00:00 29.3 10 Sudeste 23 Nordeste 0 -- -- 25
2020-06-23 20:00:00 34 10 Este 20 Nordeste 0 -- -- 19
2020-06-23 19:00:00 34.2 16 Este 32 Este 0 -- -- 19
2020-06-23 18:00:00 32.1 24 Este 58 Este 0 -- -- 23
2020-06-23 17:00:00 34.6 14 Nordeste 23 Nordeste 0 -- -- 18
2020-06-23 16:00:00 34.9 5 Noroeste 26 Sudoeste 0 -- -- 18
2020-06-23 15:00:00 35.8 8 Noroeste 28 Oeste 0 -- -- 18
2020-06-23 14:00:00 34.7 10 Noroeste 22 Noroeste 0 -- -- 20
2020-06-23 13:00:00 33.2 6 Noroeste 17 Oeste 0 -- -- 23
2020-06-23 12:00:00 32.5 7 Oeste 13 Oeste 0 -- -- 25
2020-06-23 11:00:00 30 3 Nordeste 10 Noroeste 0 -- -- 30
2020-06-23 10:00:00 26.2 3 Norte 8 Noroeste 0 -- -- 37
2020-06-23 09:00:00 21.8 3 Oeste 9 Oeste 0 -- -- 47
2020-06-23 08:00:00 16.5 2 Sudeste 8 Este 0 -- -- 62
2020-06-23 07:00:00 12.5 4 Nordeste 6 Este 0 -- -- 74
2020-06-23 06:00:00 12.1 2 Noroeste 4 Norte 0 -- -- 79
2020-06-23 05:00:00 13.5 2 Sur 6 Sudeste 0 -- -- 69
2020-06-23 04:00:00 13.9 0 Calma 8 Sudoeste 0 -- -- 66
2020-06-23 03:00:00 14.6 3 Norte 5 Sur 0 -- -- 69
2020-06-23 02:00:00 15.3 0 Calma 7 Nordeste 0 -- -- 62
2020-06-23 01:00:00 18.4 5 Este 15 Nordeste 0 -- -- 47
2020-06-23 00:00:00 22.5 10 Nordeste 15 Nordeste 0 -- -- 38
2020-06-22 23:00:00 24.5 13 Nordeste 21 Nordeste 0 -- -- 32
2020-06-22 22:00:00 25.7 11 Norte 14 Norte 0 -- -- 30
2020-06-22 21:00:00 30 13 Norte 24 Norte 0 -- -- 23
2020-06-22 20:00:00 32.3 12 Norte 21 Norte 0 -- -- 21
2020-06-22 19:00:00 33.1 12 Norte 23 Norte 0 -- -- 20
2020-06-22 18:00:00 33.4 13 Norte 22 Nordeste 0 -- -- 20
2020-06-22 17:00:00 32.6 10 Norte 20 Norte 0 -- -- 21
2020-06-22 16:00:00 32.3 5 Oeste 24 Nordeste 0 -- -- 23
2020-06-22 15:00:00 30.8 9 Nordeste 23 Norte 0 -- -- 26
2020-06-22 14:00:00 29.4 10 Nordeste 23 Nordeste 0 -- -- 31
2020-06-22 13:00:00 28.7 9 Nordeste 25 Nordeste 0 -- -- 35
2020-06-22 12:00:00 26.8 13 Nordeste 23 Este 0 -- -- 39
2020-06-22 11:00:00 23.4 11 Nordeste 18 Nordeste 0 -- -- 49
2020-06-22 10:00:00 20.4 9 Nordeste 15 Nordeste 0 -- -- 59
2020-06-22 09:00:00 18.5 5 Nordeste 10 Nordeste 0 -- -- 67
2020-06-22 08:00:00 14.9 7 Nordeste 11 Nordeste 0 -- -- 81
2020-06-22 07:00:00 11.5 0 Calma 8 Norte 0 -- -- 92
2020-06-22 06:00:00 12.1 6 Norte 8 Norte 0 -- -- 90
2020-06-22 05:00:00 12.5 7 Norte 10 Norte 0 -- -- 87
2020-06-22 04:00:00 12.9 6 Norte 9 Norte 0 -- -- 85
2020-06-22 03:00:00 15.1 4 Norte 11 Norte 0 -- -- 79
2020-06-22 02:00:00 15 2 Norte 18 Nordeste 0 -- -- 76
2020-06-22 01:00:00 18.9 12 Nordeste 21 Norte 0 -- -- 59
2020-06-22 00:00:00 17.2 5 Oeste 22 Norte 0 -- -- 50
2020-06-21 23:00:00 18.8 3 Noroeste 8 Noroeste 0 -- -- 46
2020-06-21 22:00:00 23 5 Noroeste 12 Norte 0 -- -- 30
2020-06-21 21:00:00 27.7 9 Norte 25 Noroeste 0 -- -- 21
2020-06-21 20:00:00 30.2 12 Noroeste 24 Noroeste 0 -- -- 20
2020-06-21 19:00:00 30.7 10 Noroeste 28 Oeste 0 -- -- 22
2020-06-21 18:00:00 31.4 10 Noroeste 22 Noroeste 0 -- -- 22
2020-06-21 17:00:00 31 15 Noroeste 35 Oeste 0 -- -- 21
2020-06-21 16:00:00 30.1 12 Noroeste 23 Noroeste 0 -- -- 20
2020-06-21 15:00:00 29.2 9 Norte 22 Noroeste 0 -- -- 19
2020-06-21 14:00:00 28.1 8 Noroeste 17 Noroeste 0 -- -- 22
2020-06-21 13:00:00 25.9 8 Norte 17 Norte 0 -- -- 31
2020-06-21 12:00:00 24 9 Noroeste 15 Noroeste 0 -- -- 38
2020-06-21 11:00:00 22.7 5 Noroeste 13 Oeste 0 -- -- 42
2020-06-21 10:00:00 20.6 7 Oeste 15 Sudoeste 0 -- -- 52
2020-06-21 09:00:00 17.7 12 Oeste 18 Oeste 0 -- -- 64
2020-06-21 08:00:00 14.6 10 Sudoeste 14 Sudoeste 0 -- -- 76
2020-06-21 07:00:00 11.7 9 Sudoeste 15 Sudoeste 0 -- -- 84
2020-06-21 06:00:00 12 11 Sudoeste 14 Sudoeste 0 -- -- 81
2020-06-21 05:00:00 12.8 10 Sudoeste 13 Sudoeste 0 -- -- 76
2020-06-21 04:00:00 13 8 Sudoeste 15 Sudoeste 0 -- -- 72
2020-06-21 03:00:00 14.3 10 Sudoeste 17 Sudoeste 0 -- -- 64
2020-06-21 02:00:00 14.4 12 Sudoeste 16 Sudoeste 0 -- -- 63
2020-06-21 01:00:00 13.9 10 Sudoeste 14 Oeste 0 -- -- 67
2020-06-21 00:00:00 17 10 Oeste 13 Oeste 0 -- -- 51
2020-06-20 23:00:00 18.5 10 Oeste 15 Oeste 0 -- -- 47
2020-06-20 22:00:00 21.9 11 Oeste 29 Noroeste 0 -- -- 36
2020-06-20 21:00:00 27.3 18 Noroeste 30 Noroeste 0 -- -- 26
2020-06-20 20:00:00 29.5 18 Oeste 33 Oeste 0 -- -- 24
2020-06-20 19:00:00 30.1 19 Oeste 37 Oeste 0 -- -- 23
2020-06-20 18:00:00 30.5 16 Oeste 30 Noroeste 0 -- -- 24
2020-06-20 17:00:00 29.9 9 Oeste 24 Noroeste 0 -- -- 25
2020-06-20 16:00:00 29.1 10 Noroeste 29 Oeste 0 -- -- 25
2020-06-20 15:00:00 28 10 Oeste 24 Sudoeste 0 -- -- 31
2020-06-20 14:00:00 27.2 7 Noroeste 19 Sur 0 -- -- 33
2020-06-20 13:00:00 25.6 5 Sudoeste 13 Oeste 0 -- -- 35
2020-06-20 12:00:00 24.2 6 Noroeste 12 Oeste 0 -- -- 38
2020-06-20 11:00:00 23.1 4 Norte 9 Noroeste 0 -- -- 42
2020-06-20 10:00:00 21.6 3 Oeste 11 Oeste 0 -- -- 46
2020-06-20 09:00:00 17.2 5 Oeste 8 Oeste 0 -- -- 60
2020-06-20 08:00:00 13.7 5 Sudoeste 11 Sudoeste 0 -- -- 71
2020-06-20 07:00:00 10.3 8 Sudoeste 14 Sudoeste 0 -- -- 82
2020-06-20 06:00:00 10.7 11 Sudoeste 15 Sudoeste 0 -- -- 80
2020-06-20 05:00:00 11.2 12 Sudoeste 16 Sudoeste 0 -- -- 76
2020-06-20 04:00:00 11.3 8 Sudoeste 14 Sudoeste 0 -- -- 75
2020-06-20 03:00:00 12.2 12 Oeste 13 Sudoeste 0 -- -- 72
2020-06-20 02:00:00 12.6 8 Oeste 13 Oeste 0 -- -- 69
2020-06-20 01:00:00 13.1 8 Sudoeste 13 Oeste 0 -- -- 70
2020-06-20 00:00:00 14 12 Oeste 14 Oeste 0 -- -- 65
2020-06-19 23:00:00 15.8 12 Oeste 14 Oeste 0 -- -- 56
2020-06-19 22:00:00 20.4 12 Oeste 19 Oeste 0 -- -- 36
2020-06-19 21:00:00 25.3 16 Noroeste 25 Noroeste 0 -- -- 25
2020-06-19 20:00:00 26.8 15 Oeste 37 Noroeste 0 -- -- 23
2020-06-19 19:00:00 27.9 20 Oeste 31 Sudoeste 0 -- -- 21
2020-06-19 18:00:00 27.8 19 Oeste 34 Noroeste 0 -- -- 21
2020-06-19 17:00:00 27.6 15 Oeste 28 Oeste 0 -- -- 23
2020-06-19 16:00:00 26.9 14 Oeste 31 Oeste 0 -- -- 29
2020-06-19 15:00:00 26.1 14 Oeste 27 Oeste 0 -- -- 29
2020-06-19 14:00:00 24.1 14 Noroeste 25 Noroeste 0 -- -- 35
2020-06-19 13:00:00 23.1 10 Oeste 21 Oeste 0 -- -- 40
2020-06-19 12:00:00 22.4 8 Noroeste 25 Noroeste 0 -- -- 42
2020-06-19 11:00:00 20.3 9 Noroeste 18 Oeste 0 -- -- 51
2020-06-19 10:00:00 17.6 9 Oeste 14 Noroeste 0 -- -- 59
2020-06-19 09:00:00 15 6 Oeste 12 Oeste 0 -- -- 66
2020-06-19 08:00:00 11.8 6 Sudoeste 9 Sudoeste 0 -- -- 76
2020-06-19 07:00:00 8.5 5 Sur 10 Oeste 0 -- -- 86
2020-06-19 06:00:00 9.1 10 Oeste 14 Oeste 0 -- -- 85
2020-06-19 05:00:00 9.1 9 Sudoeste 14 Oeste 0 -- -- 83
2020-06-19 04:00:00 9.7 10 Sudoeste 14 Sudoeste 0 -- -- 78
2020-06-19 03:00:00 10.7 10 Sudoeste 13 Oeste 0 -- -- 74
2020-06-19 02:00:00 11.5 9 Oeste 10 Oeste 0 -- -- 73
2020-06-19 01:00:00 14.3 5 Sudoeste 9 Oeste 0 -- -- 61
2020-06-19 00:00:00 13.4 8 Oeste 12 Oeste 0 -- -- 66
2020-06-18 23:00:00 15.9 7 Noroeste 13 Oeste 0 -- -- 52
2020-06-18 22:00:00 19.3 8 Noroeste 24 Noroeste 0 -- -- 42
2020-06-18 21:00:00 23.6 15 Noroeste 27 Noroeste 0 -- -- 30
2020-06-18 20:00:00 24.9 8 Norte 25 Oeste 0 -- -- 30
2020-06-18 19:00:00 25.1 11 Noroeste 33 Noroeste 0 -- -- 31
2020-06-18 18:00:00 25.7 16 Noroeste 36 Noroeste 0 -- -- 31
2020-06-18 17:00:00 25.9 12 Noroeste 28 Noroeste 0 -- -- 32
2020-06-18 16:00:00 25.6 13 Noroeste 31 Sudoeste 0 -- -- 32
2020-06-18 15:00:00 24 12 Noroeste 26 Noroeste 0 -- -- 35
2020-06-18 14:00:00 23 9 Noroeste 23 Oeste 0 -- -- 39
2020-06-18 13:00:00 21.1 7 Sur 15 Oeste 0 -- -- 44
2020-06-18 12:00:00 20.5 6 Sudeste 14 Norte 0 -- -- 46
2020-06-18 11:00:00 19.3 6 Noroeste 13 Oeste 0 -- -- 55
2020-06-18 10:00:00 18.2 4 Oeste 9 Noroeste 0 -- -- 60
2020-06-18 09:00:00 15.4 4 Noroeste 8 Noroeste 0 -- -- 70
2020-06-18 08:00:00 11.5 4 Oeste 7 Oeste 0 -- -- 87
2020-06-18 07:00:00 7.9 5 Noroeste 10 Oeste 0 -- -- 96
2020-06-18 06:00:00 8.2 8 Oeste 10 Oeste 0 -- -- 94
2020-06-18 05:00:00 9.2 7 Oeste 9 Noroeste 0 -- -- 91
2020-06-18 04:00:00 9.7 8 Noroeste 12 Noroeste 0 -- -- 89
2020-06-18 03:00:00 10.7 7 Noroeste 12 Noroeste 0 -- -- 83
2020-06-18 02:00:00 13 8 Noroeste 17 Noroeste 0 -- -- 69
2020-06-18 01:00:00 15.8 10 Noroeste 21 Oeste 0 -- -- 55
2020-06-18 00:00:00 15.1 3 Sudoeste 5 Oeste 0 -- -- 67
2020-06-17 23:00:00 16.9 4 Norte 8 Nordeste 0 -- -- 49
2020-06-17 22:00:00 19 5 Nordeste 13 Norte 0 -- -- 40
2020-06-17 21:00:00 20 7 Norte 13 Noroeste 0 -- -- 37
2020-06-17 20:00:00 23.3 7 Noroeste 22 Noroeste 0 -- -- 31
2020-06-17 19:00:00 22.9 13 Norte 38 Noroeste 0 -- -- 31
2020-06-17 18:00:00 22.2 11 Noroeste 36 Noroeste 0 -- -- 32
2020-06-17 17:00:00 23.1 12 Oeste 23 Oeste 0 -- -- 33
2020-06-17 16:00:00 22.8 15 Norte 29 Norte 0 -- -- 33
2020-06-17 15:00:00 21.6 10 Noroeste 23 Oeste 0 -- -- 34
2020-06-17 14:00:00 21.4 9 Noroeste 20 Oeste 0 -- -- 36
2020-06-17 13:00:00 19 7 Noroeste 22 Noroeste 0 -- -- 46
2020-06-17 12:00:00 18.9 10 Oeste 21 Noroeste 0 -- -- 46
2020-06-17 11:00:00 18 6 Noroeste 15 Oeste 0 -- -- 54
2020-06-17 10:00:00 16.9 8 Noroeste 17 Oeste 0 -- -- 58
2020-06-17 09:00:00 14 10 Oeste 15 Oeste 0 -- -- 69
2020-06-17 08:00:00 10.6 10 Sudoeste 17 Oeste 0 -- -- 83
2020-06-17 07:00:00 9.8 9 Sudoeste 14 Sudoeste 0 -- -- 86
2020-06-17 06:00:00 8.8 10 Sudoeste 15 Sudoeste 0 -- -- 89
2020-06-17 05:00:00 10.1 9 Sudoeste 14 Sudoeste 0 -- -- 84
2020-06-17 04:00:00 9.8 8 Sudoeste 10 Sudoeste 0 -- -- 84
2020-06-17 03:00:00 11.4 6 Norte 13 Noroeste 0 -- -- 74
2020-06-17 02:00:00 10.8 5 Noroeste 8 Noroeste 0 -- -- 78
2020-06-17 01:00:00 11.4 5 Noroeste 14 Noroeste 0 -- -- 72
2020-06-17 00:00:00 13.7 11 Noroeste 17 Noroeste 0 -- -- 67
2020-06-16 23:00:00 14.8 10 Oeste 17 Oeste 0 -- -- 61
2020-06-16 22:00:00 17.2 13 Oeste 32 Noroeste 0 -- -- 50
2020-06-16 21:00:00 19.5 24 Noroeste 37 Noroeste 0 -- -- 43
2020-06-16 20:00:00 21 27 Oeste 44 Oeste 0 -- -- 38
2020-06-16 19:00:00 22.6 28 Oeste 45 Oeste 0 -- -- 38
2020-06-16 18:00:00 22.2 31 Oeste 51 Oeste 0 -- -- 39
2020-06-16 17:00:00 23.1 33 Oeste 57 Oeste 0 -- -- 37
2020-06-16 16:00:00 22 26 Oeste 51 Oeste 0 -- -- 41
2020-06-16 15:00:00 20.4 22 Oeste 36 Oeste 0 -- -- 46
2020-06-16 14:00:00 20.3 21 Oeste 31 Oeste 0 -- -- 43
2020-06-16 13:00:00 19.4 17 Sudoeste 32 Oeste 0 -- -- 48
2020-06-16 12:00:00 19.4 8 Sudoeste 22 Oeste 0 -- -- 49
2020-06-16 11:00:00 17.7 12 Oeste 26 Noroeste 0 -- -- 55
2020-06-16 10:00:00 16.9 10 Oeste 17 Sudoeste 0 -- -- 59
2020-06-16 09:00:00 14.8 12 Sudoeste 18 Sudoeste 0 -- -- 72
2020-06-16 08:00:00 12.5 12 Oeste 20 Oeste 0 -- -- 83
2020-06-16 07:00:00 11.7 8 Sudoeste 12 Sudoeste 0 -- -- 87
2020-06-16 06:00:00 11.8 7 Sudoeste 10 Sudoeste 0 -- -- 85
2020-06-16 05:00:00 11.4 7 Sudoeste 10 Sudoeste 0 -- -- 86
2020-06-16 04:00:00 11.3 5 Oeste 11 Oeste 0 -- -- 83
2020-06-16 03:00:00 13.1 6 Oeste 15 Noroeste 0 -- -- 77
2020-06-16 02:00:00 14.2 10 Noroeste 18 Oeste 0 -- -- 69
2020-06-16 01:00:00 14.8 12 Noroeste 21 Noroeste 0 -- -- 64
2020-06-16 00:00:00 15.5 17 Noroeste 28 Noroeste 0 -- -- 60
2020-06-15 23:00:00 15.8 19 Oeste 29 Oeste 0 -- -- 59
2020-06-15 22:00:00 16.6 21 Noroeste 39 Noroeste 0 -- -- 57
2020-06-15 21:00:00 18.1 27 Noroeste 39 Noroeste 0 -- -- 52
2020-06-15 20:00:00 20.5 23 Noroeste 36 Oeste 0 -- -- 44
2020-06-15 19:00:00 22.1 21 Oeste 35 Oeste 0 -- -- 40
2020-06-15 18:00:00 23.6 18 Noroeste 33 Oeste 0 -- -- 37
2020-06-15 17:00:00 23.4 16 Oeste 36 Oeste 0 -- -- 38
2020-06-15 16:00:00 23.5 17 Oeste 31 Oeste 0 -- -- 38
2020-06-15 15:00:00 22.8 5 Noroeste 25 Oeste 0 -- -- 40
2020-06-15 14:00:00 21.2 5 Oeste 24 Oeste 0 -- -- 43
2020-06-15 13:00:00 20.7 6 Noroeste 21 Sudoeste 0 -- -- 46
2020-06-15 12:00:00 18.6 8 Oeste 15 Oeste 0 -- -- 50
2020-06-15 11:00:00 17.1 6 Noroeste 15 Noroeste 0 -- -- 57
2020-06-15 10:00:00 16.5 7 Oeste 14 Noroeste 0 -- -- 61
2020-06-15 09:00:00 14.8 5 Oeste 10 Oeste 0 -- -- 72
2020-06-15 08:00:00 12.2 3 Sudoeste 8 Oeste 0 -- -- 83
2020-06-15 07:00:00 11.3 5 Oeste 9 Oeste 0 -- -- 88
2020-06-15 06:00:00 11 6 Oeste 10 Oeste 0 -- -- 88
2020-06-15 05:00:00 10.4 8 Oeste 12 Sudoeste 0 -- -- 89
2020-06-15 04:00:00 10.4 9 Sudoeste 10 Sudoeste 0 -- -- 87
2020-06-15 03:00:00 11.6 6 Sudoeste 9 Sudoeste 0 -- -- 82
2020-06-15 02:00:00 11.4 8 Sudoeste 10 Sudoeste 0 -- -- 84
2020-06-15 01:00:00 12.5 8 Oeste 10 Oeste 0 -- -- 81
2020-06-15 00:00:00 13.4 9 Noroeste 12 Noroeste 0 -- -- 71